Time;durP1;ratioP1;P1;durP2;ratioP2;P2;SDS_P1;SDS_P2;PMS_P1;PMS_P2;Temp;Humidity;BMP_temperature;BMP_pressure;BME280_temperature;BME280_humidity;BME280_pressure;Samples;Min_cycle;Max_cycle;Signal;HPM_P1;HPM_P2
2021/01/11 00:00:10;;;;;;;10.43;6.78;;;14.80;54.30;;;;;;6279151;22;20273;-85
2021/01/11 00:02:37;;;;;;;10.35;7.30;;;14.80;54.30;;;;;;6278679;22;20162;-84
2021/01/11 00:05:04;;;;;;;9.60;7.05;;;14.80;54.40;;;;;;6278253;22;20018;-85
2021/01/11 00:07:30;;;;;;;12.68;7.47;;;14.80;54.30;;;;;;6252921;22;20447;-84
2021/01/11 00:09:56;;;;;;;11.68;7.28;;;14.80;54.40;;;;;;6278742;22;20015;-85
2021/01/11 00:12:22;;;;;;;10.13;7.45;;;14.70;54.30;;;;;;6279142;22;20022;-86
2021/01/11 00:14:47;;;;;;;10.68;6.68;;;14.80;54.30;;;;;;6253037;22;20471;-84
2021/01/11 00:17:13;;;;;;;9.98;7.35;;;14.70;54.30;;;;;;6252777;22;20030;-84
2021/01/11 00:19:39;;;;;;;10.25;7.63;;;14.70;54.30;;;;;;6253005;22;20011;-84
2021/01/11 00:22:06;;;;;;;11.48;6.78;;;14.70;54.30;;;;;;6278275;22;20013;-85
2021/01/11 00:24:33;;;;;;;8.25;6.30;;;14.70;54.40;;;;;;6252966;22;20448;-85
2021/01/11 00:26:59;;;;;;;10.45;7.32;;;14.70;54.30;;;;;;6289135;22;20305;-84
2021/01/11 00:29:25;;;;;;;11.02;6.97;;;14.70;54.40;;;;;;6252847;22;20027;-85
2021/01/11 00:31:51;;;;;;;9.75;7.00;;;14.60;54.30;;;;;;6279883;22;20019;-83
2021/01/11 00:34:17;;;;;;;11.63;7.68;;;14.70;54.30;;;;;;6278736;22;20321;-84
2021/01/11 00:36:47;;;;;;;7.95;7.15;;;14.70;54.20;;;;;;6253876;22;20007;-85
2021/01/11 00:39:13;;;;;;;10.18;6.72;;;14.70;54.20;;;;;;6278111;22;20015;-85
2021/01/11 00:41:39;;;;;;;9.60;7.13;;;14.70;54.20;;;;;;6252662;22;20050;-84
2021/01/11 00:44:06;;;;;;;9.57;6.95;;;14.60;54.20;;;;;;6278203;22;20322;-84
2021/01/11 00:46:31;;;;;;;11.55;6.90;;;14.60;54.10;;;;;;6252766;22;20015;-84
2021/01/11 00:48:58;;;;;;;9.60;7.13;;;14.60;54.20;;;;;;6252373;22;20026;-84
2021/01/11 00:51:24;;;;;;;10.60;8.27;;;14.60;54.20;;;;;;6252609;22;20016;-84
2021/01/11 00:53:50;;;;;;;9.80;7.45;;;14.60;54.30;;;;;;6277949;22;20014;-84
2021/01/11 00:56:18;;;;;;;9.73;7.47;;;14.60;54.20;;;;;;6278977;22;20022;-85
2021/01/11 00:58:44;;;;;;;10.80;7.22;;;14.60;54.20;;;;;;6279095;22;20416;-84
2021/01/11 01:01:11;;;;;;;11.38;7.80;;;14.60;54.20;;;;;;6253376;22;20331;-84
2021/01/11 01:03:39;;;;;;;9.95;7.63;;;14.60;54.20;;;;;;6277678;22;20020;-84
2021/01/11 01:06:07;;;;;;;11.75;7.93;;;14.60;54.30;;;;;;6278140;22;20094;-85
2021/01/11 01:08:33;;;;;;;9.75;7.60;;;14.50;54.30;;;;;;6278304;22;20018;-85
2021/01/11 01:10:59;;;;;;;9.70;7.60;;;14.50;54.30;;;;;;6278249;22;20015;-85
2021/01/11 01:13:25;;;;;;;9.85;7.07;;;14.50;54.30;;;;;;6252215;22;20011;-85
2021/01/11 01:15:51;;;;;;;10.05;7.90;;;14.60;54.40;;;;;;6277375;22;20413;-85
2021/01/11 01:18:17;;;;;;;10.48;7.75;;;14.50;54.40;;;;;;6252417;22;20332;-85
2021/01/11 01:20:43;;;;;;;11.45;8.05;;;14.50;54.40;;;;;;6252739;22;20077;-84
2021/01/11 01:23:08;;;;;;;10.57;8.20;;;14.50;54.40;;;;;;6253330;22;20008;-84
2021/01/11 01:25:34;;;;;;;11.07;8.68;;;14.50;54.40;;;;;;6277925;22;20011;-83
2021/01/11 01:28:00;;;;;;;9.43;8.18;;;14.60;54.60;;;;;;6252375;22;20019;-83
2021/01/11 01:30:26;;;;;;;9.80;8.48;;;14.50;54.50;;;;;;6277901;22;20037;-85
2021/01/11 01:32:52;;;;;;;10.27;8.00;;;14.50;54.60;;;;;;6278232;22;20014;-85
2021/01/11 01:35:18;;;;;;;10.95;9.30;;;14.50;54.60;;;;;;6277819;22;20073;-84
2021/01/11 01:37:44;;;;;;;12.63;8.70;;;14.50;54.70;;;;;;6253232;22;20400;-83
2021/01/11 01:40:10;;;;;;;11.57;9.02;;;14.50;54.60;;;;;;6252036;22;20035;-85
2021/01/11 01:42:36;;;;;;;11.18;8.90;;;14.60;54.70;;;;;;6277879;22;20008;-84
2021/01/11 01:45:04;;;;;;;12.82;10.15;;;14.50;54.70;;;;;;6277461;22;20018;-85
2021/01/11 01:47:31;;;;;;;13.88;10.75;;;14.50;54.60;;;;;;6251955;22;20007;-84
2021/01/11 01:49:58;;;;;;;12.05;10.75;;;14.60;54.60;;;;;;6278599;22;20042;-85
2021/01/11 01:52:23;;;;;;;13.02;9.88;;;14.60;54.50;;;;;;6278094;22;20012;-85
2021/01/11 01:54:50;;;;;;;12.23;10.35;;;14.60;54.40;;;;;;6251883;22;20038;-85
2021/01/11 01:57:17;;;;;;;12.10;10.85;;;14.60;54.40;;;;;;6252243;22;20289;-83
2021/01/11 01:59:47;;;;;;;12.20;10.88;;;14.60;54.40;;;;;;6252396;22;20127;-84
2021/01/11 02:02:14;;;;;;;13.52;11.13;;;14.60;54.40;;;;;;6251829;22;20008;-84
2021/01/11 02:04:41;;;;;;;12.15;10.52;;;14.60;54.30;;;;;;6277498;22;20011;-84
2021/01/11 02:07:27;;;;;;;13.48;12.10;;;14.60;54.30;;;;;;6251688;22;20023;-85
2021/01/11 02:10:05;;;;;;;13.05;11.25;;;14.60;54.20;;;;;;6277487;22;20012;-84
2021/01/11 02:12:53;;;;;;;13.32;11.02;;;14.60;54.20;;;;;;6289069;22;20015;-84
2021/01/11 02:15:27;;;;;;;13.15;11.77;;;14.60;54.20;;;;;;6252158;22;20031;-85
2021/01/11 02:18:09;;;;;;;13.32;11.88;;;14.60;54.10;;;;;;6251721;22;20095;-84
2021/01/11 02:21:12;;;;;;;13.50;11.27;;;14.60;54.00;;;;;;6277671;22;20087;-85
2021/01/11 02:24:19;;;;;;;13.13;11.73;;;14.60;54.00;;;;;;6277825;22;20011;-84
2021/01/11 02:27:10;;;;;;;13.68;12.27;;;14.60;54.10;;;;;;6160470;23;20013;-84
2021/01/11 02:29:59;;;;;;;12.15;10.90;;;14.60;54.20;;;;;;6252060;22;20023;-85
2021/01/11 02:32:29;;;;;;;12.57;11.15;;;14.60;54.10;;;;;;6252294;22;20022;-84
2021/01/11 02:34:55;;;;;;;12.38;10.57;;;14.60;54.20;;;;;;6277415;22;20019;-83
2021/01/11 02:37:21;;;;;;;12.77;10.70;;;14.60;54.20;;;;;;6252313;22;20052;-85
2021/01/11 02:39:48;;;;;;;13.00;10.80;;;14.60;54.20;;;;;;6251815;22;20011;-83
2021/01/11 02:42:13;;;;;;;12.68;10.68;;;14.60;54.30;;;;;;6251583;22;20016;-83
2021/01/11 02:44:39;;;;;;;12.50;10.43;;;14.60;54.20;;;;;;6252814;22;20011;-84
2021/01/11 02:47:05;;;;;;;12.00;10.38;;;14.60;54.90;;;;;;6253742;22;20012;-84
2021/01/11 02:49:41;;;;;;;10.98;9.80;;;14.60;54.30;;;;;;6254143;22;20389;-85
2021/01/11 02:52:18;;;;;;;13.68;9.88;;;14.50;54.30;;;;;;6279273;22;20065;-84
2021/01/11 02:54:54;;;;;;;12.10;10.80;;;14.50;54.30;;;;;;6279049;22;20016;-85
2021/01/11 02:57:29;;;;;;;11.80;9.93;;;14.50;54.30;;;;;;6279409;22;20019;-84
2021/01/11 03:00:07;;;;;;;11.10;9.57;;;14.50;54.40;;;;;;6289739;22;20074;-86
2021/01/11 03:02:40;;;;;;;10.85;9.40;;;14.50;54.40;;;;;;6254169;22;20016;-84
2021/01/11 03:05:07;;;;;;;10.40;9.27;;;14.50;54.50;;;;;;6279013;22;20012;-83
2021/01/11 03:07:33;;;;;;;11.75;9.38;;;14.50;54.60;;;;;;6279722;22;20078;-83
2021/01/11 03:09:59;;;;;;;10.10;8.90;;;14.50;54.60;;;;;;6279337;22;20050;-85
2021/01/11 03:12:25;;;;;;;13.30;9.77;;;14.50;54.70;;;;;;6277158;22;20087;-84
2021/01/11 03:14:51;;;;;;;11.13;8.98;;;14.50;54.70;;;;;;6279063;22;20046;-83
2021/01/11 03:17:16;;;;;;;10.15;8.05;;;14.40;54.60;;;;;;6279080;22;20098;-85
2021/01/11 03:19:42;;;;;;;12.63;8.70;;;14.50;54.60;;;;;;6279136;22;20016;-85
2021/01/11 03:22:08;;;;;;;9.45;8.45;;;14.50;54.70;;;;;;6279897;22;20270;-86
2021/01/11 03:24:34;;;;;;;10.73;8.85;;;14.40;54.60;;;;;;6253466;22;20011;-84
2021/01/11 03:27:00;;;;;;;12.20;8.45;;;14.40;54.60;;;;;;6290637;22;20008;-84
2021/01/11 03:29:27;;;;;;;9.93;7.90;;;14.50;54.60;;;;;;6253949;22;20015;-83
2021/01/11 03:31:53;;;;;;;10.38;7.53;;;14.50;54.60;;;;;;6253054;22;20023;-85
2021/01/11 03:34:19;;;;;;;9.68;7.57;;;14.40;54.70;;;;;;6253595;22;20007;-83
2021/01/11 03:36:46;;;;;;;9.38;8.35;;;14.50;54.60;;;;;;6279145;22;20026;-85
2021/01/11 03:39:12;;;;;;;8.93;7.18;;;14.40;54.50;;;;;;6279199;22;20012;-83
2021/01/11 03:41:41;;;;;;;8.68;7.32;;;14.40;54.60;;;;;;6288868;22;20061;-84
2021/01/11 03:44:07;;;;;;;8.88;7.95;;;14.50;54.70;;;;;;6279616;22;20015;-85
2021/01/11 03:46:34;;;;;;;9.63;7.70;;;14.40;54.60;;;;;;6280456;22;20332;-84
2021/01/11 03:49:00;;;;;;;10.88;7.80;;;14.40;54.60;;;;;;6279379;22;20012;-84
2021/01/11 03:51:26;;;;;;;9.20;7.63;;;14.40;54.60;;;;;;6289095;22;20301;-83
2021/01/11 03:53:52;;;;;;;10.65;7.70;;;14.40;54.60;;;;;;6278533;22;20357;-83
2021/01/11 03:56:18;;;;;;;8.82;6.80;;;14.40;54.70;;;;;;6252588;22;20083;-84
2021/01/11 03:58:44;;;;;;;8.80;7.13;;;14.30;54.60;;;;;;6279475;22;20031;-84
2021/01/11 04:01:09;;;;;;;8.52;7.07;;;14.30;54.60;;;;;;6278290;22;20015;-84
2021/01/11 04:03:35;;;;;;;11.57;7.40;;;14.30;54.70;;;;;;6278988;22;20008;-84
2021/01/11 04:06:03;;;;;;;7.53;6.03;;;14.30;54.80;;;;;;6272392;22;20027;-84
2021/01/11 04:08:28;;;;;;;8.23;6.43;;;14.30;54.80;;;;;;6278766;22;20093;-84
2021/01/11 04:10:56;;;;;;;6.70;5.97;;;14.30;54.70;;;;;;6253065;22;20409;-84
2021/01/11 04:13:22;;;;;;;10.93;6.57;;;14.30;54.70;;;;;;6253128;22;20016;-85
2021/01/11 04:15:48;;;;;;;8.32;5.45;;;14.30;54.70;;;;;;6278271;22;20016;-83
2021/01/11 04:18:14;;;;;;;7.90;5.47;;;14.30;54.70;;;;;;6278991;22;20007;-83
2021/01/11 04:20:40;;;;;;;7.38;4.65;;;14.30;54.70;;;;;;6279623;22;20073;-83
2021/01/11 04:23:06;;;;;;;7.80;4.57;;;14.40;54.70;;;;;;6278889;22;20019;-83
2021/01/11 04:25:33;;;;;;;6.20;4.55;;;14.30;54.60;;;;;;6288805;22;20023;-83
2021/01/11 04:28:00;;;;;;;8.23;4.90;;;14.40;54.70;;;;;;6288877;22;20015;-84
2021/01/11 04:30:27;;;;;;;5.43;3.63;;;14.30;54.60;;;;;;6278283;22;20015;-85
2021/01/11 04:32:57;;;;;;;7.38;4.32;;;14.30;54.60;;;;;;6278508;22;20090;-85
2021/01/11 04:35:28;;;;;;;5.93;3.95;;;14.30;54.60;;;;;;6252864;22;20059;-84
2021/01/11 04:37:54;;;;;;;6.28;3.67;;;14.40;54.80;;;;;;6278524;22;20008;-84
2021/01/11 04:40:20;;;;;;;6.28;3.45;;;14.30;54.70;;;;;;6279004;22;20011;-83
2021/01/11 04:42:52;;;;;;;7.13;3.92;;;14.30;54.70;;;;;;6279678;22;20011;-85
2021/01/11 04:45:19;;;;;;;4.97;3.28;;;14.30;54.70;;;;;;6278638;22;20026;-84
2021/01/11 04:47:51;;;;;;;8.50;3.88;;;14.40;54.70;;;;;;6253694;22;20408;-85
2021/01/11 04:50:18;;;;;;;5.07;3.13;;;14.30;54.60;;;;;;6278245;22;20047;-84
2021/01/11 04:52:45;;;;;;;5.07;3.20;;;14.30;54.70;;;;;;6252691;22;20054;-85
2021/01/11 04:55:12;;;;;;;6.75;2.85;;;14.40;54.70;;;;;;6278490;22;20012;-85
2021/01/11 04:57:51;;;;;;;5.60;2.80;;;14.30;54.60;;;;;;6252677;22;20046;-84
2021/01/11 05:00:20;;;;;;;5.93;2.55;;;14.40;54.70;;;;;;6277859;22;20073;-83
2021/01/11 05:02:50;;;;;;;4.28;2.53;;;14.40;54.70;;;;;;6289229;22;20073;-84
2021/01/11 05:05:17;;;;;;;4.88;2.92;;;14.40;54.70;;;;;;6278133;22;20082;-83
2021/01/11 05:07:43;;;;;;;4.68;2.78;;;14.40;54.70;;;;;;6252002;22;20470;-85
2021/01/11 05:10:09;;;;;;;3.95;2.63;;;14.40;55.30;;;;;;6220402;23;20016;-83
2021/01/11 05:12:35;;;;;;;4.18;2.55;;;14.40;54.70;;;;;;6195788;23;20035;-85
2021/01/11 05:15:17;;;;;;;4.60;2.17;;;14.40;54.70;;;;;;6221747;23;20012;-86
2021/01/11 05:17:49;;;;;;;6.40;2.50;;;14.40;55.40;;;;;;6195389;23;20414;-85
2021/01/11 05:20:24;;;;;;;7.63;3.03;;;14.40;55.90;;;;;;6248767;23;20026;-86
2021/01/11 05:23:52;;;;;;;7.53;2.67;;;14.50;56.30;;;;;;6221168;23;20074;-86
2021/01/11 05:30:37;;;;;;;8.95;2.30;;;14.60;56.90;;;;;;6125563;23;20014;-86
2021/01/11 05:41:42;;;;;;;8.40;2.30;;;14.90;57.30;;;;;;6158072;22;20040;-87
2021/01/11 05:55:33;;;;;;;14.63;2.70;;;15.20;57.70;;;;;;6278850;22;20011;-86
2021/01/11 05:58:04;;;;;;;7.45;1.80;;;15.20;58.00;;;;;;6226417;22;20308;-85
2021/01/11 06:00:35;;;;;;;7.47;1.42;;;15.20;58.10;;;;;;6225730;22;20011;-80
2021/01/11 06:03:03;;;;;;;8.40;1.63;;;15.40;58.10;;;;;;6288869;22;20007;-81
2021/01/11 06:05:30;;;;;;;6.35;1.40;;;15.40;58.10;;;;;;6252555;22;20327;-80
2021/01/11 06:07:58;;;;;;;13.43;2.35;;;15.50;58.90;;;;;;6252042;22;20022;-84
2021/01/11 06:10:25;;;;;;;13.02;2.92;;;15.60;58.50;;;;;;6226450;22;20008;-79
2021/01/11 06:12:52;;;;;;;10.35;2.28;;;15.60;58.70;;;;;;6289052;22;20095;-82
2021/01/11 06:15:22;;;;;;;4.88;2.17;;;15.70;58.80;;;;;;6278588;22;20007;-82
2021/01/11 06:17:50;;;;;;;6.47;1.88;;;15.80;58.90;;;;;;6252020;22;20431;-82
2021/01/11 06:20:19;;;;;;;10.45;2.78;;;15.80;58.90;;;;;;6280673;22;20098;-83
2021/01/11 06:22:44;;;;;;;8.38;1.92;;;15.90;58.80;;;;;;6290922;22;20420;-82
2021/01/11 06:25:33;;;;;;;11.40;2.85;;;16.00;58.80;;;;;;6228696;22;20019;-81
2021/01/11 06:28:08;;;;;;;7.63;2.45;;;16.10;58.70;;;;;;6254005;22;20016;-83
2021/01/11 06:30:34;;;;;;;6.63;2.78;;;16.10;59.00;;;;;;6253898;22;20073;-82
2021/01/11 06:33:26;;;;;;;6.18;2.60;;;16.20;59.10;;;;;;6263953;22;20008;-82
2021/01/11 06:35:54;;;;;;;7.13;2.70;;;16.20;58.90;;;;;;6279818;22;20026;-83
2021/01/11 06:38:21;;;;;;;10.20;2.60;;;16.30;59.20;;;;;;6253343;22;20336;-83
2021/01/11 06:41:00;;;;;;;14.50;4.00;;;16.30;58.90;;;;;;6280537;22;20015;-83
2021/01/11 06:43:26;;;;;;;9.85;2.88;;;16.40;58.90;;;;;;6263848;22;20008;-83
2021/01/11 06:45:58;;;;;;;7.95;2.95;;;16.40;59.10;;;;;;6280406;22;20022;-86
2021/01/11 06:48:31;;;;;;;9.30;3.28;;;16.40;59.50;;;;;;6290363;22;20087;-85
2021/01/11 06:51:09;;;;;;;9.67;4.67;;;16.50;59.70;;;;;;6253205;22;20018;-84
2021/01/11 06:53:36;;;;;;;7.05;4.22;;;16.50;59.30;;;;;;6287248;22;20260;-84
2021/01/11 06:56:10;;;;;;;11.77;3.97;;;16.50;59.40;;;;;;6284598;22;20015;-82
2021/01/11 06:58:40;;;;;;;13.90;3.30;;;16.50;59.40;;;;;;6284267;22;20404;-83
2021/01/11 07:01:13;;;;;;;7.75;3.47;;;16.50;59.30;;;;;;6294531;22;20057;-83
2021/01/11 07:03:48;;;;;;;10.18;3.38;;;16.50;59.20;;;;;;6311186;22;20065;-82
2021/01/11 07:06:39;;;;;;;7.53;3.65;;;16.50;59.30;;;;;;6294838;22;20011;-84
2021/01/11 07:09:19;;;;;;;9.68;3.13;;;16.50;59.20;;;;;;6310805;22;20072;-84
2021/01/11 07:11:46;;;;;;;8.85;3.13;;;16.50;59.00;;;;;;6293949;22;20331;-84
2021/01/11 07:14:14;;;;;;;10.68;3.42;;;16.60;59.20;;;;;;6294835;22;20008;-81
2021/01/11 07:16:44;;;;;;;14.40;4.28;;;16.60;59.00;;;;;;6257759;22;20015;-84
2021/01/11 07:19:14;;;;;;;8.98;2.83;;;16.60;58.90;;;;;;6283592;22;20091;-83
2021/01/11 07:21:41;;;;;;;6.30;2.38;;;16.60;58.80;;;;;;6283279;22;20015;-84
2021/01/11 07:24:10;;;;;;;9.13;2.70;;;16.60;58.70;;;;;;6283280;22;20022;-85
2021/01/11 07:26:36;;;;;;;10.38;2.50;;;16.60;58.50;;;;;;6258450;22;20526;-84
2021/01/11 07:29:04;;;;;;;6.85;2.38;;;16.60;58.40;;;;;;6258124;22;20011;-85
2021/01/11 07:31:35;;;;;;;4.97;2.50;;;16.60;58.40;;;;;;6257112;22;20314;-84
2021/01/11 07:34:03;;;;;;;4.20;2.35;;;16.60;58.40;;;;;;6258027;22;20090;-84
2021/01/11 07:36:46;;;;;;;8.60;2.75;;;16.60;58.50;;;;;;6258122;22;20072;-85
2021/01/11 07:39:30;;;;;;;5.63;2.17;;;16.60;58.30;;;;;;6257888;22;20011;-84
2021/01/11 07:42:00;;;;;;;7.50;2.28;;;16.60;58.30;;;;;;6283890;22;20233;-84
2021/01/11 07:44:34;;;;;;;7.32;2.00;;;16.60;58.30;;;;;;6257511;22;20011;-84
2021/01/11 07:47:05;;;;;;;5.03;1.77;;;16.60;58.30;;;;;;6258309;22;20347;-83
2021/01/11 07:49:33;;;;;;;6.43;1.70;;;16.60;58.40;;;;;;6256972;22;20011;-83
2021/01/11 07:52:09;;;;;;;7.05;1.95;;;16.70;58.50;;;;;;6283405;22;20072;-83
2021/01/11 07:54:39;;;;;;;8.45;1.95;;;16.70;58.40;;;;;;6263598;22;20070;-84
2021/01/11 07:57:13;;;;;;;11.63;2.65;;;16.70;58.40;;;;;;6279444;22;20007;-86
2021/01/11 07:59:44;;;;;;;11.63;2.30;;;16.80;58.30;;;;;;6253011;22;20012;-85
2021/01/11 08:02:12;;;;;;;10.57;1.80;;;16.80;58.10;;;;;;6226711;22;20011;-86
2021/01/11 08:04:42;;;;;;;7.60;2.63;;;16.80;58.00;;;;;;6227427;22;20019;-85
2021/01/11 08:07:13;;;;;;;9.07;2.20;;;16.70;57.90;;;;;;6225675;22;20348;-86
2021/01/11 08:09:42;;;;;;;8.18;2.40;;;16.70;58.50;;;;;;6226151;22;20019;-86
2021/01/11 08:12:18;;;;;;;11.38;2.85;;;16.70;57.80;;;;;;6227977;22;20012;-86
2021/01/11 08:15:09;;;;;;;9.48;2.92;;;16.70;57.90;;;;;;6226622;22;20065;-87
2021/01/11 08:18:09;;;;;;;9.40;2.45;;;16.70;57.90;;;;;;6228371;22;20012;-87
2021/01/11 08:20:45;;;;;;;9.02;2.10;;;16.60;57.80;;;;;;6226763;22;20026;-87
2021/01/11 08:23:16;;;;;;;6.82;2.38;;;16.60;58.00;;;;;;6227154;22;20065;-86
2021/01/11 08:25:51;;;;;;;4.65;1.55;;;16.60;58.50;;;;;;6225600;22;20019;-86
2021/01/11 08:28:31;;;;;;;7.75;1.88;;;16.60;57.90;;;;;;6229057;22;20011;-87
2021/01/11 08:31:06;;;;;;;19.67;2.70;;;16.70;58.00;;;;;;6262812;22;20026;-85
2021/01/11 08:33:44;;;;;;;9.60;2.63;;;16.60;57.30;;;;;;6227035;22;20094;-86
2021/01/11 08:36:20;;;;;;;14.13;2.55;;;16.60;57.70;;;;;;6224773;22;20042;-85
2021/01/11 08:39:13;;;;;;;7.70;2.13;;;16.60;57.90;;;;;;6252055;22;20018;-85
2021/01/11 08:41:54;;;;;;;7.28;2.38;;;16.50;57.70;;;;;;6252098;22;20034;-86
2021/01/11 08:44:27;;;;;;;7.35;2.15;;;16.50;57.80;;;;;;6226273;22;20074;-86
2021/01/11 08:46:57;;;;;;;9.65;2.03;;;16.50;57.90;;;;;;6226328;22;20018;-86
2021/01/11 08:49:55;;;;;;;9.00;2.08;;;16.50;57.90;;;;;;6189550;23;20020;-86
2021/01/11 08:52:38;;;;;;;7.25;2.05;;;16.50;57.90;;;;;;6167233;23;20020;-87
2021/01/11 08:55:18;;;;;;;8.50;2.65;;;16.50;57.90;;;;;;6189828;23;20016;-89
2021/01/11 08:58:05;;;;;;;10.10;2.72;;;16.50;57.80;;;;;;6245288;23;20467;-87
2021/01/11 09:00:41;;;;;;;9.93;2.13;;;16.50;58.00;;;;;;6195090;23;20012;-90
2021/01/11 09:03:35;;;;;;;6.75;2.13;;;16.50;58.10;;;;;;6197139;23;20020;-85
2021/01/11 09:06:10;;;;;;;8.73;2.50;;;16.50;57.40;;;;;;6222642;23;20015;-84
2021/01/11 09:08:36;;;;;;;9.90;1.85;;;16.50;57.70;;;;;;6220266;23;20024;-79
2021/01/11 09:11:46;;;;;;;8.18;1.98;;;16.50;57.80;;;;;;6219109;23;20074;-88
2021/01/11 09:14:14;;;;;;;11.98;1.77;;;16.60;57.50;;;;;;6194453;23;20098;-83
2021/01/11 09:16:41;;;;;;;5.05;2.22;;;16.60;57.70;;;;;;6220088;23;20036;-82
2021/01/11 09:19:12;;;;;;;13.38;2.53;;;16.60;57.60;;;;;;6220346;23;20042;-78
2021/01/11 09:21:39;;;;;;;11.63;2.17;;;16.60;57.80;;;;;;6288625;22;20011;-81
2021/01/11 09:24:09;;;;;;;10.88;2.38;;;16.60;58.10;;;;;;6277923;22;20423;-79
2021/01/11 09:26:36;;;;;;;10.65;2.25;;;16.60;58.10;;;;;;6288164;22;20082;-80
2021/01/11 09:29:03;;;;;;;8.90;1.98;;;16.60;58.10;;;;;;6288785;22;20031;-80
2021/01/11 09:31:29;;;;;;;14.23;1.70;;;16.70;58.20;;;;;;6288634;22;20266;-80
2021/01/11 09:37:23;;;;;;;19.73;3.15;;;16.80;57.90;;;;;;6190954;22;20480;-88
2021/01/11 09:44:03;;;;;;;17.80;3.67;;;16.70;57.90;;;;;;6215111;22;20273;-89
2021/01/11 09:46:20;;;;;;;16.73;3.00;;;16.60;58.20;;;;;;6203508;23;20013;-82
2021/01/11 09:48:46;;;;;;;12.65;2.63;;;16.60;58.50;;;;;;6189718;23;20023;-82
2021/01/11 09:51:12;;;;;;;16.85;3.33;;;16.50;58.60;;;;;;6190586;23;20013;-83
2021/01/11 09:53:43;;;;;;;12.95;2.53;;;16.60;58.80;;;;;;6189207;23;20016;-90
2021/01/11 09:56:14;;;;;;;14.57;2.88;;;16.60;58.30;;;;;;6217273;23;20015;-87
2021/01/11 09:58:45;;;;;;;15.07;2.30;;;16.60;57.40;;;;;;6224088;23;20024;-89
2021/01/11 10:01:14;;;;;;;15.77;2.60;;;16.50;57.40;;;;;;6164477;23;20445;-82
2021/01/11 10:03:40;;;;;;;13.52;3.17;;;16.50;57.90;;;;;;6225390;23;20421;-86
2021/01/11 10:06:08;;;;;;;16.15;2.20;;;16.50;58.30;;;;;;6203159;22;20019;-84
2021/01/11 10:08:35;;;;;;;25.40;2.90;;;16.50;58.60;;;;;;6277760;22;20277;-83
2021/01/11 10:11:04;;;;;;;11.77;1.95;;;16.50;58.70;;;;;;6248673;22;20069;-85
2021/01/11 10:13:30;;;;;;;10.75;2.45;;;16.60;58.50;;;;;;6276059;22;20015;-85
2021/01/11 10:15:57;;;;;;;12.80;1.85;;;16.60;58.40;;;;;;6276343;22;20007;-81
2021/01/11 10:18:23;;;;;;;12.02;1.80;;;16.60;58.40;;;;;;6277431;22;20087;-83
2021/01/11 10:20:52;;;;;;;10.10;1.80;;;16.60;58.40;;;;;;6276820;22;20058;-84
2021/01/11 10:23:20;;;;;;;10.68;1.83;;;16.60;58.50;;;;;;6251400;22;20008;-83
2021/01/11 10:25:46;;;;;;;11.70;2.55;;;16.60;58.70;;;;;;6276772;22;20012;-83
2021/01/11 10:28:12;;;;;;;12.85;2.30;;;16.60;58.40;;;;;;6287350;22;20292;-86
2021/01/11 10:30:41;;;;;;;7.65;2.10;;;16.60;58.20;;;;;;6250757;22;20008;-84
2021/01/11 10:34:06;;;;;;;8.70;1.52;;;16.60;58.20;;;;;;6251692;22;20007;-91
2021/01/11 10:40:05;;;;;;;12.57;2.50;;;16.60;58.80;;;;;;6277992;22;20008;-82
2021/01/11 10:42:31;;;;;;;8.70;1.88;;;16.60;58.80;;;;;;6288295;22;20042;-83
2021/01/11 10:44:58;;;;;;;9.48;1.40;;;16.60;58.30;;;;;;6287443;22;20008;-83
2021/01/11 10:47:24;;;;;;;10.98;1.75;;;16.60;58.30;;;;;;6286932;22;20039;-82
2021/01/11 10:49:50;;;;;;;8.15;1.88;;;16.60;58.60;;;;;;6277683;22;20003;-82
2021/01/11 10:52:16;;;;;;;12.35;1.95;;;16.60;58.80;;;;;;6288001;22;20012;-83
2021/01/11 10:54:42;;;;;;;22.40;3.55;;;16.50;58.90;;;;;;6284786;22;20021;-83
2021/01/11 10:57:20;;;;;;;27.60;3.17;;;16.50;58.90;;;;;;6277340;22;20004;-85
2021/01/11 10:59:46;;;;;;;23.55;2.85;;;16.50;58.70;;;;;;6251017;22;20019;-85
2021/01/11 11:02:12;;;;;;;21.25;2.50;;;16.50;58.70;;;;;;6250762;22;20015;-84
2021/01/11 11:04:38;;;;;;;28.10;2.58;;;16.50;58.30;;;;;;6277561;22;20031;-81
2021/01/11 11:07:12;;;;;;;9.75;1.20;;;16.50;58.00;;;;;;6290430;22;20014;-86
2021/01/11 11:10:28;;;;;;;15.05;1.67;;;16.50;55.10;;;;;;6253144;22;20035;-88
2021/01/11 11:12:54;;;;;;;14.65;1.63;;;16.40;55.60;;;;;;6265936;22;20046;-82
2021/01/11 11:15:21;;;;;;;12.23;2.00;;;16.30;56.70;;;;;;6279400;22;20015;-82
2021/01/11 11:17:46;;;;;;;12.30;1.75;;;16.30;57.30;;;;;;6289256;22;20397;-82
2021/01/11 11:20:13;;;;;;;11.63;1.30;;;16.30;57.60;;;;;;6280799;22;20003;-81
2021/01/11 11:22:39;;;;;;;12.38;1.40;;;16.30;57.80;;;;;;6278964;22;20043;-82
2021/01/11 11:25:06;;;;;;;7.50;1.55;;;16.30;58.00;;;;;;6279791;22;20003;-82
2021/01/11 11:27:36;;;;;;;7.18;1.27;;;16.30;58.00;;;;;;6290748;22;20020;-82
2021/01/11 11:30:07;;;;;;;11.32;1.73;;;16.30;58.00;;;;;;6278934;22;20029;-82
2021/01/11 11:32:34;;;;;;;7.85;1.75;;;16.30;58.00;;;;;;6279550;22;20266;-82
2021/01/11 11:35:04;;;;;;;6.97;1.23;;;16.20;58.00;;;;;;6278949;22;20046;-82
2021/01/11 11:37:31;;;;;;;15.30;1.80;;;16.20;58.00;;;;;;6278827;22;20008;-82
2021/01/11 11:39:57;;;;;;;8.20;1.50;;;16.20;58.00;;;;;;6278788;22;20008;-82
2021/01/11 11:42:23;;;;;;;11.15;1.50;;;16.20;57.90;;;;;;6279418;22;20072;-82
2021/01/11 11:44:49;;;;;;;6.43;1.38;;;16.20;57.80;;;;;;6280476;22;20008;-82
2021/01/11 11:47:15;;;;;;;7.97;1.52;;;16.20;57.70;;;;;;6278833;22;20424;-82
2021/01/11 11:49:41;;;;;;;6.30;1.23;;;16.20;57.60;;;;;;6289174;22;20007;-82
2021/01/11 11:52:06;;;;;;;4.38;1.17;;;16.20;57.60;;;;;;6279018;22;20039;-82
2021/01/11 11:54:32;;;;;;;6.85;1.00;;;16.10;57.50;;;;;;6283310;22;20014;-82
2021/01/11 11:56:58;;;;;;;5.63;0.93;;;16.10;57.50;;;;;;6294491;22;20400;-82
2021/01/11 11:59:24;;;;;;;3.97;1.23;;;16.10;57.40;;;;;;6283946;22;20008;-82
2021/01/11 12:01:49;;;;;;;5.90;0.98;;;16.10;57.30;;;;;;6284405;22;20061;-82
2021/01/11 12:04:15;;;;;;;7.90;1.08;;;16.10;57.20;;;;;;6258080;22;20008;-82
2021/01/11 12:06:44;;;;;;;4.85;0.80;;;16.00;57.10;;;;;;6293963;22;20042;-82
2021/01/11 12:09:11;;;;;;;4.93;0.70;;;16.00;57.00;;;;;;6283664;22;20011;-82
2021/01/11 12:11:51;;;;;;;4.35;1.15;;;16.00;56.90;;;;;;6258368;22;20292;-82
2021/01/11 12:14:17;;;;;;;4.90;1.08;;;16.00;56.70;;;;;;6284229;22;20075;-82
2021/01/11 12:16:48;;;;;;;5.45;1.08;;;16.00;56.70;;;;;;6283265;22;20011;-82
2021/01/11 12:19:14;;;;;;;6.65;1.10;;;16.00;56.60;;;;;;6283979;22;20455;-82
2021/01/11 12:21:39;;;;;;;4.13;0.90;;;15.90;56.70;;;;;;6311057;22;20038;-82
2021/01/11 12:24:09;;;;;;;4.65;1.00;;;15.90;57.30;;;;;;6283454;22;20022;-82
2021/01/11 12:26:42;;;;;;;3.53;0.55;;;15.90;56.80;;;;;;6293863;22;20007;-82
2021/01/11 12:29:09;;;;;;;2.22;0.63;;;15.90;56.80;;;;;;6294461;22;20007;-82
2021/01/11 12:31:35;;;;;;;3.67;1.08;;;15.90;56.80;;;;;;6310749;22;20007;-83
2021/01/11 12:34:02;;;;;;;2.75;0.60;;;15.90;56.80;;;;;;6320681;22;20018;-83
2021/01/11 12:36:30;;;;;;;4.25;0.98;;;15.80;56.70;;;;;;6293660;22;20007;-82
2021/01/11 12:38:57;;;;;;;2.63;0.68;;;15.80;56.70;;;;;;6283732;22;20031;-82
2021/01/11 12:41:24;;;;;;;3.17;1.00;;;15.80;56.70;;;;;;6310549;22;20400;-82
2021/01/11 12:43:51;;;;;;;2.90;0.82;;;15.80;56.80;;;;;;6283297;22;20458;-82
2021/01/11 12:46:19;;;;;;;3.38;1.02;;;15.80;56.70;;;;;;6310793;22;20289;-82
2021/01/11 12:48:45;;;;;;;3.25;0.82;;;15.80;56.60;;;;;;6283336;22;19999;-82
2021/01/11 12:51:15;;;;;;;3.78;1.10;;;15.80;56.60;;;;;;6284220;22;20031;-82
2021/01/11 12:53:44;;;;;;;3.17;0.88;;;15.80;56.50;;;;;;6310517;22;20345;-82
2021/01/11 12:56:20;;;;;;;4.45;1.20;;;15.80;56.50;;;;;;6259142;22;20022;-82
2021/01/11 12:58:50;;;;;;;2.78;0.90;;;15.80;57.10;;;;;;6252878;22;20082;-83
2021/01/11 13:01:20;;;;;;;3.55;0.90;;;15.70;56.50;;;;;;6228335;22;20035;-82
2021/01/11 13:03:48;;;;;;;4.03;1.00;;;15.70;56.40;;;;;;6263744;22;20016;-82
2021/01/11 13:06:25;;;;;;;3.50;1.05;;;15.70;56.30;;;;;;6279143;22;20003;-82
2021/01/11 13:08:51;;;;;;;3.58;1.15;;;15.70;56.20;;;;;;6252646;22;20004;-82
2021/01/11 13:11:18;;;;;;;3.50;0.88;;;15.70;56.30;;;;;;6252776;22;20392;-82
2021/01/11 13:13:45;;;;;;;2.78;1.02;;;15.70;56.20;;;;;;6253363;22;20388;-82
2021/01/11 13:16:13;;;;;;;3.30;0.85;;;15.70;56.80;;;;;;6262657;22;20008;-82
2021/01/11 13:18:39;;;;;;;4.22;1.10;;;15.60;56.00;;;;;;6279333;22;20015;-83
2021/01/11 13:21:05;;;;;;;3.05;1.00;;;15.60;55.90;;;;;;6252697;22;20003;-82
2021/01/11 13:23:31;;;;;;;2.38;0.68;;;15.60;55.80;;;;;;6252597;22;20003;-82
2021/01/11 13:25:57;;;;;;;4.15;1.10;;;15.60;55.80;;;;;;6278726;22;20011;-83
2021/01/11 13:28:23;;;;;;;2.90;1.00;;;15.60;55.80;;;;;;6289565;22;20014;-82
2021/01/11 13:30:48;;;;;;;2.95;1.00;;;15.60;55.80;;;;;;6263383;22;20281;-82